createdAt,value
2023-01-20T00:01:28.673Z,30.40
2023-01-20T00:03:59.304Z,30.00
2023-01-20T00:06:28.832Z,33.75
2023-01-20T00:08:58.976Z,29.65
2023-01-20T00:11:27.738Z,26.48
2023-01-20T00:13:56.742Z,30.23
2023-01-20T00:16:25.905Z,28.63
2023-01-20T00:18:55.235Z,29.42
2023-01-20T00:21:25.324Z,31.02
2023-01-20T00:23:53.763Z,26.35
2023-01-20T00:26:24.401Z,29.35
2023-01-20T00:28:56.072Z,29.95
2023-01-20T00:31:26.132Z,29.27
2023-01-20T00:33:56.758Z,27.23
2023-01-20T00:36:27.985Z,26.52
2023-01-20T00:38:56.319Z,26.52
2023-01-20T00:41:24.694Z,27.48
2023-01-20T00:43:53.125Z,23.73
2023-01-20T00:46:22.971Z,29.08
2023-01-20T00:48:51.624Z,25.33
2023-01-20T00:51:20.106Z,28.67
2023-01-20T00:53:49.840Z,30.60
2023-01-20T00:56:18.246Z,34.75
2023-01-20T00:58:46.749Z,27.42
2023-01-20T01:01:15.313Z,26.05
2023-01-20T01:03:45.489Z,30.00
2023-01-20T01:06:16.038Z,27.90
2023-01-20T01:08:45.343Z,29.40
2023-01-20T01:11:15.404Z,28.15
2023-01-20T01:13:43.800Z,29.45
2023-01-20T01:16:13.562Z,34.05
2023-01-20T01:18:42.694Z,27.42
2023-01-20T01:21:13.193Z,29.52
2023-01-20T01:23:41.627Z,27.38
2023-01-20T01:26:10.446Z,39.22
2023-01-20T01:28:40.314Z,41.45
2023-01-20T01:31:09.728Z,32.90
2023-01-20T01:33:38.220Z,32.53
2023-01-20T01:36:08.519Z,41.08
2023-01-20T01:38:37.004Z,42.22
2023-01-20T01:41:05.499Z,40.45
2023-01-20T01:43:36.235Z,31.88
2023-01-20T01:46:07.376Z,28.58
2023-01-20T01:48:39.610Z,28.40
2023-01-20T01:51:12.350Z,31.20
2023-01-20T01:53:44.869Z,26.67
2023-01-20T01:56:15.211Z,28.80
2023-01-20T01:58:47.581Z,25.65
2023-01-20T02:01:17.905Z,31.40
2023-01-20T02:03:52.768Z,26.10
2023-01-20T02:06:22.026Z,26.95
2023-01-20T02:08:50.352Z,23.83
2023-01-20T02:11:18.696Z,28.65
2023-01-20T02:13:47.156Z,24.92
2023-01-20T02:16:23.127Z,26.38
2023-01-20T02:19:04.787Z,26.45
2023-01-20T02:22:05.360Z,25.67
2023-01-20T02:24:58.344Z,25.80
2023-01-20T02:27:53.882Z,25.00
2023-01-20T02:30:47.808Z,24.13
2023-01-20T02:33:24.637Z,26.17
2023-01-20T02:35:56.243Z,28.73
2023-01-20T02:38:31.182Z,28.77
2023-01-20T02:41:07.969Z,28.23
2023-01-20T02:43:39.652Z,23.27
2023-01-20T02:46:12.826Z,30.02
2023-01-20T02:48:45.541Z,27.08
2023-01-20T02:51:18.928Z,29.95
2023-01-20T02:53:51.819Z,30.83
2023-01-20T02:56:24.036Z,27.08
2023-01-20T02:58:57.602Z,25.70
2023-01-20T03:01:31.684Z,30.25
2023-01-20T03:06:35.693Z,31.63
2023-01-20T03:09:08.464Z,27.15
2023-01-20T03:11:41.749Z,31.60
2023-01-20T03:14:12.996Z,28.55
2023-01-20T03:16:42.382Z,26.40
2023-01-20T03:19:12.532Z,29.95
2023-01-20T03:21:40.938Z,29.30
2023-01-20T03:24:09.690Z,23.65
2023-01-20T03:26:39.528Z,29.30
2023-01-20T03:29:12.618Z,27.80
2023-01-20T03:31:44.751Z,26.67
2023-01-20T03:34:18.262Z,24.48
2023-01-20T03:36:47.412Z,28.53
2023-01-20T03:39:16.425Z,28.02
2023-01-20T03:41:53.954Z,28.92
2023-01-20T03:44:28.854Z,29.98
2023-01-20T03:47:08.731Z,28.77
2023-01-20T03:49:47.024Z,24.33
2023-01-20T03:52:22.537Z,31.65
2023-01-20T03:54:54.685Z,29.80
2023-01-20T03:57:30.960Z,29.50
2023-01-20T04:00:00.210Z,32.58
2023-01-20T04:02:29.491Z,28.45
2023-01-20T04:05:02.357Z,30.33
2023-01-20T04:07:33.330Z,31.85
2023-01-20T04:10:07.028Z,27.55
2023-01-20T04:12:35.374Z,31.60
2023-01-20T04:15:03.829Z,33.45
2023-01-20T04:17:32.309Z,34.47
2023-01-20T04:20:07.953Z,32.35
2023-01-20T04:22:43.956Z,30.80
2023-01-20T04:25:16.693Z,36.08
2023-01-20T04:27:45.308Z,31.83
2023-01-20T04:30:14.753Z,36.78
2023-01-20T04:32:43.163Z,36.83
2023-01-20T04:35:15.199Z,31.63
2023-01-20T04:37:43.816Z,31.55
2023-01-20T04:40:12.948Z,37.00
2023-01-20T04:42:41.392Z,32.97
2023-01-20T04:45:15.623Z,34.67
2023-01-20T04:50:15.213Z,33.95
2023-01-20T04:52:44.390Z,38.13
2023-01-20T04:55:13.881Z,45.22
2023-01-20T04:57:42.396Z,34.65
2023-01-20T05:00:18.498Z,36.88
2023-01-20T05:02:47.146Z,39.03
2023-01-20T05:05:17.374Z,36.50
2023-01-20T05:07:46.019Z,41.70
2023-01-20T05:10:14.330Z,37.67
2023-01-20T05:12:42.814Z,35.22
2023-01-20T05:15:12.148Z,39.45
2023-01-20T05:17:40.658Z,39.55
2023-01-20T05:20:10.575Z,43.42
2023-01-20T05:22:40.453Z,42.13
2023-01-20T05:25:09.747Z,41.53
2023-01-20T05:27:38.663Z,43.38
2023-01-20T05:30:08.500Z,39.88
2023-01-20T05:32:36.836Z,48.42
2023-01-20T05:35:05.790Z,36.60
2023-01-20T05:37:34.219Z,40.60
2023-01-20T05:40:04.043Z,40.83
2023-01-20T05:42:33.808Z,40.42
2023-01-20T05:45:02.195Z,43.95
2023-01-20T05:47:30.641Z,45.15
2023-01-20T05:49:58.967Z,42.10
2023-01-20T05:52:27.323Z,41.53
2023-01-20T05:54:55.649Z,43.25
2023-01-20T05:57:26.763Z,40.03
2023-01-20T05:59:55.712Z,43.85
2023-01-20T06:02:24.247Z,43.00
2023-01-20T06:04:52.859Z,41.65
2023-01-20T06:07:21.228Z,45.67
2023-01-20T06:09:49.636Z,46.25
2023-01-20T06:12:17.968Z,38.83
2023-01-20T06:14:47.703Z,40.63
2023-01-20T06:17:16.104Z,42.20
2023-01-20T06:19:44.452Z,43.95
2023-01-20T06:22:15.354Z,42.83
2023-01-20T06:24:43.742Z,38.70
2023-01-20T06:27:13.683Z,38.35
2023-01-20T06:29:42.209Z,45.50
2023-01-20T06:32:12.175Z,41.58
2023-01-20T06:34:40.600Z,43.22
2023-01-20T06:37:09.022Z,46.03
2023-01-20T06:39:37.608Z,43.10
2023-01-20T06:42:06.366Z,40.65
2023-01-20T06:44:34.905Z,43.92
2023-01-20T06:47:03.577Z,47.83
2023-01-20T06:49:34.318Z,40.88
2023-01-20T06:52:02.700Z,42.45
2023-01-20T06:54:31.157Z,42.03
2023-01-20T06:56:59.495Z,42.40
2023-01-20T06:59:27.823Z,44.15
2023-01-20T07:01:56.353Z,44.45
2023-01-20T07:04:24.838Z,48.67
2023-01-20T07:06:54.548Z,43.75
2023-01-20T07:09:22.945Z,46.10
2023-01-20T07:11:51.279Z,45.65
2023-01-20T07:14:19.650Z,46.97
2023-01-20T07:16:48.803Z,41.75
2023-01-20T07:19:17.300Z,43.63
2023-01-20T07:21:45.876Z,43.83
2023-01-20T07:24:15.687Z,44.72
2023-01-20T07:26:44.041Z,45.65
2023-01-20T07:29:12.465Z,48.92
2023-01-20T07:31:40.842Z,45.85
2023-01-20T07:34:09.265Z,38.30
2023-01-20T07:36:37.620Z,50.65
2023-01-20T07:39:05.982Z,41.60
2023-01-20T07:41:35.832Z,43.88
2023-01-20T07:44:04.293Z,44.20
2023-01-20T07:46:33.301Z,43.03
2023-01-20T07:49:01.658Z,45.13
2023-01-20T07:51:30.043Z,50.75
2023-01-20T07:53:58.415Z,42.78
2023-01-20T07:56:29.578Z,41.90
2023-01-20T07:58:59.859Z,47.55
2023-01-20T08:01:30.097Z,54.38
2023-01-20T08:04:00.443Z,51.55
2023-01-20T08:06:30.169Z,48.35
2023-01-20T08:09:01.801Z,43.17
2023-01-20T08:11:32.076Z,47.70
2023-01-20T08:14:01.806Z,44.15
2023-01-20T08:16:30.193Z,42.75
2023-01-20T08:18:58.549Z,42.75
2023-01-20T08:21:28.522Z,41.47
2023-01-20T08:23:58.065Z,47.50
2023-01-20T08:26:28.304Z,45.33
2023-01-20T08:28:57.610Z,47.97
2023-01-20T08:31:28.420Z,44.17
2023-01-20T08:33:58.748Z,46.38
2023-01-20T08:36:29.177Z,44.05
2023-01-20T08:38:58.237Z,43.95
2023-01-20T08:41:28.456Z,54.95
2023-01-20T08:43:59.592Z,43.28
2023-01-20T08:46:29.858Z,49.63
2023-01-20T08:48:58.894Z,45.80
2023-01-20T08:51:29.996Z,47.80
2023-01-20T08:53:58.847Z,45.20
2023-01-20T08:56:27.369Z,54.78
2023-01-20T08:58:56.714Z,48.50
2023-01-20T09:01:26.801Z,51.97
2023-01-20T09:04:06.593Z,53.53
2023-01-20T09:06:40.727Z,56.08
2023-01-20T09:09:09.437Z,56.67
2023-01-20T09:11:38.240Z,48.65
2023-01-20T09:14:06.681Z,55.47
2023-01-20T09:16:35.433Z,51.83
2023-01-20T09:19:05.303Z,46.60
2023-01-20T09:21:33.804Z,55.67
2023-01-20T09:24:02.159Z,52.15
2023-01-20T09:26:38.406Z,49.50
2023-01-20T09:29:11.511Z,48.83
2023-01-20T09:31:44.611Z,42.08
2023-01-20T09:34:19.665Z,45.42
2023-01-20T09:36:51.946Z,50.60
2023-01-20T09:39:38.646Z,51.38
2023-01-20T09:42:42.101Z,55.03
2023-01-20T09:45:25.037Z,50.80
2023-01-20T09:48:01.104Z,50.45
2023-01-20T09:51:03.275Z,48.13
2023-01-20T09:53:49.347Z,52.33
2023-01-20T09:56:19.478Z,51.88
2023-01-20T09:58:53.985Z,51.42
2023-01-20T10:01:30.840Z,51.75
2023-01-20T10:04:06.009Z,57.03
2023-01-20T10:06:40.536Z,53.47
2023-01-20T10:09:17.874Z,49.20
2023-01-20T10:11:47.827Z,54.78
2023-01-20T10:14:22.844Z,52.30
2023-01-20T10:16:55.576Z,53.90
2023-01-20T10:19:30.794Z,51.47
2023-01-20T10:22:08.740Z,56.67
2023-01-20T10:24:42.224Z,51.88
2023-01-20T10:27:10.668Z,50.50
2023-01-20T10:29:42.592Z,57.67
2023-01-20T10:32:19.810Z,48.95
2023-01-20T10:34:51.391Z,46.28
2023-01-20T10:37:22.747Z,52.83
2023-01-20T10:39:54.499Z,48.30
2023-01-20T10:42:24.215Z,60.20
2023-01-20T10:44:53.663Z,53.63
2023-01-20T10:47:40.315Z,55.40
2023-01-20T10:50:21.655Z,50.80
2023-01-20T10:53:08.818Z,52.75
2023-01-20T10:55:48.014Z,51.10
2023-01-20T10:58:22.319Z,44.13
2023-01-20T11:00:51.188Z,55.25
2023-01-20T11:03:22.449Z,53.60
2023-01-20T11:05:52.891Z,52.40
2023-01-20T11:08:24.720Z,50.33
2023-01-20T11:10:56.983Z,52.17
2023-01-20T11:13:25.990Z,59.38
2023-01-20T11:15:57.815Z,50.22
2023-01-20T11:18:29.607Z,53.80
2023-01-20T11:21:01.739Z,56.00
2023-01-20T11:23:38.181Z,56.58
2023-01-20T11:26:10.093Z,59.00
2023-01-20T11:28:48.226Z,49.90
2023-01-20T11:31:17.705Z,53.70
2023-01-20T11:33:57.876Z,49.40
2023-01-20T11:36:27.480Z,51.35
2023-01-20T11:38:58.510Z,53.05
2023-01-20T11:41:29.613Z,52.33
2023-01-20T11:43:59.741Z,45.70
2023-01-20T11:46:30.721Z,48.55
2023-01-20T11:49:18.053Z,56.15
2023-01-20T11:51:52.472Z,53.28
2023-01-20T11:56:55.232Z,51.05
2023-01-20T11:59:29.852Z,56.13
2023-01-20T12:02:01.765Z,54.85
2023-01-20T12:04:56.424Z,55.28
2023-01-20T12:07:29.156Z,49.70
2023-01-20T12:10:04.675Z,52.88
2023-01-20T12:12:40.985Z,60.78
2023-01-20T12:15:16.076Z,66.78
2023-01-20T12:17:55.072Z,55.47
2023-01-20T12:20:29.595Z,65.78
2023-01-20T12:23:14.371Z,68.43
2023-01-20T12:25:50.918Z,57.00
2023-01-20T12:28:22.787Z,56.40
2023-01-20T12:30:56.907Z,58.00
2023-01-20T12:33:28.186Z,48.35
2023-01-20T12:36:19.925Z,54.38
2023-01-20T12:39:02.712Z,49.05
2023-01-20T12:41:49.210Z,50.85
2023-01-20T12:44:23.813Z,53.28
2023-01-20T12:46:57.340Z,52.40
2023-01-20T12:49:52.956Z,48.07
2023-01-20T12:52:37.091Z,51.25
2023-01-20T12:55:29.494Z,51.78
2023-01-20T12:58:09.356Z,46.78
2023-01-20T13:01:28.568Z,53.63
2023-01-20T13:04:44.885Z,55.03
2023-01-20T13:07:33.092Z,54.80
2023-01-20T13:10:16.079Z,52.33
2023-01-20T13:12:52.730Z,53.92
2023-01-20T13:15:29.482Z,50.10
2023-01-20T13:18:13.521Z,51.38
2023-01-20T13:20:45.488Z,52.38
2023-01-20T13:23:16.056Z,57.13
2023-01-20T13:25:46.872Z,57.20
2023-01-20T13:28:21.775Z,50.08
2023-01-20T13:30:54.117Z,56.42
2023-01-20T13:33:36.367Z,51.28
2023-01-20T13:36:18.808Z,52.35
2023-01-20T13:38:48.464Z,57.15
2023-01-20T13:41:50.238Z,54.35
2023-01-20T13:44:35.554Z,54.40
2023-01-20T13:47:08.943Z,54.92
2023-01-20T13:49:50.289Z,53.03
2023-01-20T13:53:00.367Z,61.78
2023-01-20T13:55:29.805Z,54.30
2023-01-20T13:57:58.306Z,47.03
2023-01-20T14:00:26.699Z,51.50
2023-01-20T14:02:56.700Z,54.00
2023-01-20T14:05:31.437Z,59.10
2023-01-20T14:08:00.588Z,49.47
2023-01-20T14:10:29.479Z,52.83
2023-01-20T14:12:57.928Z,50.90
2023-01-20T14:15:40.172Z,56.40
2023-01-20T14:18:16.708Z,55.60
2023-01-20T14:20:58.616Z,51.63
2023-01-20T14:23:33.844Z,54.92
2023-01-20T14:26:05.867Z,48.30
2023-01-20T14:28:35.527Z,53.92
2023-01-20T14:31:13.991Z,50.55
2023-01-20T14:33:49.359Z,54.50
2023-01-20T14:36:19.455Z,62.70
2023-01-20T14:38:57.614Z,56.22
2023-01-20T14:41:29.539Z,64.28
2023-01-20T14:43:58.879Z,54.85
2023-01-20T14:46:29.023Z,60.15
2023-01-20T14:48:59.859Z,59.83
2023-01-20T14:51:28.661Z,58.85
2023-01-20T14:54:45.667Z,57.00
2023-01-20T14:57:21.669Z,53.85
2023-01-20T15:00:03.024Z,50.70
2023-01-20T15:02:34.236Z,56.58
2023-01-20T15:05:20.307Z,56.67
2023-01-20T15:07:48.694Z,104.35
2023-01-20T15:10:19.654Z,62.25
2023-01-20T15:12:55.956Z,53.33
2023-01-20T15:15:30.559Z,51.83
2023-01-20T15:18:14.662Z,50.63
2023-01-20T15:20:46.743Z,53.42
2023-01-20T15:23:19.807Z,52.13
2023-01-20T15:25:48.431Z,52.45
2023-01-20T15:28:30.207Z,53.33
2023-01-20T15:30:59.804Z,56.97
2023-01-20T15:33:28.391Z,59.83
2023-01-20T15:36:00.395Z,60.88
2023-01-20T15:38:31.725Z,61.75
2023-01-20T15:41:00.186Z,53.30
2023-01-20T15:43:28.768Z,59.33
2023-01-20T15:45:57.165Z,57.05
2023-01-20T15:48:25.632Z,57.20
2023-01-20T15:50:54.066Z,55.95
2023-01-20T15:53:23.863Z,56.03
2023-01-20T15:55:53.111Z,61.88
2023-01-20T15:58:25.079Z,57.65
2023-01-20T16:00:53.663Z,57.03
2023-01-20T16:03:22.456Z,56.35
2023-01-20T16:05:51.647Z,53.97
2023-01-20T16:08:22.081Z,56.00
2023-01-20T16:10:52.303Z,142.57
2023-01-20T16:13:20.653Z,63.20
2023-01-20T16:15:49.132Z,52.92
2023-01-20T16:18:19.011Z,55.60
2023-01-20T16:20:49.791Z,55.72
2023-01-20T16:23:18.311Z,57.83
2023-01-20T16:25:46.907Z,67.32
2023-01-20T16:28:21.338Z,66.50
2023-01-20T16:33:20.640Z,71.25
2023-01-20T16:35:51.044Z,68.07
2023-01-20T16:38:22.661Z,59.78
2023-01-20T16:40:52.872Z,56.10
2023-01-20T16:43:23.054Z,53.05
2023-01-20T16:45:55.132Z,57.17
2023-01-20T16:48:25.699Z,61.40
2023-01-20T16:50:54.194Z,65.03
2023-01-20T16:53:22.528Z,56.92
2023-01-20T16:55:51.314Z,54.40
2023-01-20T16:58:19.639Z,53.08
2023-01-20T17:00:49.362Z,49.60
2023-01-20T17:03:18.016Z,59.60
2023-01-20T17:05:46.372Z,51.92
2023-01-20T17:08:15.214Z,54.10
2023-01-20T17:10:48.520Z,57.33
2023-01-20T17:13:16.861Z,59.17
2023-01-20T17:15:45.329Z,62.28
2023-01-20T17:18:15.010Z,59.75
2023-01-20T17:20:43.361Z,57.30
2023-01-20T17:23:11.743Z,62.03
2023-01-20T17:25:40.912Z,54.60
2023-01-20T17:28:09.342Z,63.60
2023-01-20T17:30:39.261Z,56.33
2023-01-20T17:33:07.670Z,59.35
2023-01-20T17:35:37.538Z,77.22
2023-01-20T17:38:06.034Z,64.70
2023-01-20T17:40:34.443Z,57.00
2023-01-20T17:43:04.289Z,56.80
2023-01-20T17:45:32.879Z,57.85
2023-01-20T17:48:03.109Z,49.70
2023-01-20T17:50:32.804Z,62.85
2023-01-20T17:53:02.607Z,60.80
2023-01-20T17:55:31.016Z,59.35
2023-01-20T17:57:59.353Z,62.80
2023-01-20T18:00:27.851Z,54.20
2023-01-20T18:02:57.171Z,49.95
2023-01-20T18:05:25.669Z,52.95
2023-01-20T18:07:53.971Z,50.05
2023-01-20T18:10:23.771Z,50.08
2023-01-20T18:12:52.207Z,55.95
2023-01-20T18:15:21.233Z,55.58
2023-01-20T18:17:49.665Z,52.90
2023-01-20T18:20:19.186Z,53.60
2023-01-20T18:22:51.382Z,54.58
2023-01-20T18:25:19.779Z,59.78
2023-01-20T18:27:49.490Z,58.10
2023-01-20T18:30:18.644Z,60.72
2023-01-20T18:32:47.057Z,56.45
2023-01-20T18:35:15.612Z,58.20
2023-01-20T18:37:44.037Z,52.40
2023-01-20T18:40:14.223Z,62.38
2023-01-20T18:42:44.922Z,58.05
2023-01-20T18:45:14.899Z,51.60
2023-01-20T18:47:43.303Z,54.00
2023-01-20T18:50:12.616Z,59.00
2023-01-20T18:52:40.977Z,60.97
2023-01-20T18:55:10.419Z,53.55
2023-01-20T18:57:38.840Z,47.67
2023-01-20T19:00:08.696Z,59.72
2023-01-20T19:02:38.535Z,54.70
2023-01-20T19:05:08.111Z,51.55
2023-01-20T19:07:36.544Z,50.13
2023-01-20T19:10:05.380Z,53.22
2023-01-20T19:12:33.716Z,58.45
2023-01-20T19:15:02.127Z,54.95
2023-01-20T19:17:30.667Z,49.72
2023-01-20T19:20:00.618Z,49.28
2023-01-20T19:22:29.036Z,49.55
2023-01-20T19:24:57.416Z,62.45
2023-01-20T19:27:26.427Z,56.33
2023-01-20T19:29:55.005Z,57.13
2023-01-20T19:32:23.490Z,51.25
2023-01-20T19:34:52.133Z,52.72
2023-01-20T19:37:21.811Z,57.45
2023-01-20T19:39:50.319Z,51.50
2023-01-20T19:42:18.701Z,42.25
2023-01-20T19:44:47.059Z,48.13
2023-01-20T19:47:15.395Z,46.05
2023-01-20T19:49:43.787Z,57.10
2023-01-20T19:52:12.179Z,49.75
2023-01-20T19:54:41.976Z,48.72
2023-01-20T19:57:10.353Z,49.63
2023-01-20T19:59:40.795Z,41.72
2023-01-20T20:02:10.062Z,51.92
2023-01-20T20:04:38.580Z,43.03
2023-01-20T20:07:06.935Z,47.55
2023-01-20T20:09:35.398Z,49.38
2023-01-20T20:12:07.608Z,46.55
2023-01-20T20:14:36.048Z,56.95
2023-01-20T20:17:04.533Z,51.80
2023-01-20T20:19:32.888Z,46.10
2023-01-20T20:22:01.266Z,48.88
2023-01-20T20:24:29.627Z,49.17
2023-01-20T20:26:58.213Z,51.78
2023-01-20T20:29:27.989Z,46.58
2023-01-20T20:31:56.397Z,43.03
2023-01-20T20:34:24.750Z,41.47
2023-01-20T20:36:53.125Z,41.00
2023-01-20T20:39:21.527Z,46.20
2023-01-20T20:41:49.906Z,42.42
2023-01-20T20:44:18.271Z,42.08
2023-01-20T20:46:48.833Z,40.08
2023-01-20T20:49:17.281Z,38.33
2023-01-20T20:51:45.901Z,37.60
2023-01-20T20:54:16.800Z,38.58
2023-01-20T20:56:45.535Z,41.38
2023-01-20T20:59:13.975Z,34.60
2023-01-20T21:01:42.406Z,41.03
2023-01-20T21:04:12.533Z,40.70
2023-01-20T21:06:41.001Z,41.00
2023-01-20T21:09:09.800Z,36.63
2023-01-20T21:11:38.837Z,39.78
2023-01-20T21:14:08.377Z,41.20
2023-01-20T21:16:37.841Z,40.67
2023-01-20T21:19:06.177Z,46.85
2023-01-20T21:21:35.940Z,41.78
2023-01-20T21:24:04.501Z,40.63
2023-01-20T21:26:32.847Z,41.60
2023-01-20T21:29:03.603Z,36.03
2023-01-20T21:31:32.577Z,35.47
2023-01-20T21:34:01.679Z,36.42
2023-01-20T21:36:32.276Z,37.05
2023-01-20T21:39:02.436Z,39.10
2023-01-20T21:41:30.846Z,40.65
2023-01-20T21:44:16.897Z,34.10
2023-01-20T21:46:45.294Z,34.47
2023-01-20T21:49:31.545Z,34.40
2023-01-20T21:52:17.692Z,35.65
2023-01-20T21:54:47.462Z,32.42
2023-01-20T21:57:16.037Z,34.38
2023-01-20T21:59:45.637Z,36.65
2023-01-20T22:02:16.277Z,37.35
2023-01-20T22:04:46.117Z,34.88
2023-01-20T22:07:15.029Z,32.50
2023-01-20T22:09:43.512Z,29.02
2023-01-20T22:12:13.643Z,27.20
2023-01-20T22:14:42.489Z,30.70
2023-01-20T22:17:12.413Z,26.88
2023-01-20T22:19:41.114Z,32.22
2023-01-20T22:22:09.466Z,34.53
2023-01-20T22:24:37.781Z,30.17
2023-01-20T22:27:06.129Z,33.25
2023-01-20T22:29:35.859Z,30.05
2023-01-20T22:32:05.032Z,30.83
2023-01-20T22:34:33.400Z,29.95
2023-01-20T22:37:01.719Z,27.90
2023-01-20T22:39:30.095Z,28.05
2023-01-20T22:41:58.561Z,31.40
2023-01-20T22:44:26.936Z,28.42
2023-01-20T22:46:56.630Z,29.02
2023-01-20T22:49:24.995Z,26.65
2023-01-20T22:51:55.431Z,25.90
2023-01-20T22:54:23.802Z,27.15
2023-01-20T22:56:52.236Z,29.27
2023-01-20T22:59:20.584Z,34.33
2023-01-20T23:01:48.906Z,30.52
2023-01-20T23:04:18.733Z,33.47
2023-01-20T23:06:47.082Z,76.47
2023-01-20T23:09:16.313Z,29.67
2023-01-20T23:11:44.747Z,25.60
2023-01-20T23:14:13.568Z,27.48
2023-01-20T23:16:43.721Z,30.60
2023-01-20T23:19:12.785Z,31.92
2023-01-20T23:21:42.480Z,31.05
2023-01-20T23:24:10.820Z,32.25
2023-01-20T23:26:39.201Z,31.80
2023-01-20T23:29:07.551Z,33.05
2023-01-20T23:31:35.973Z,36.42
2023-01-20T23:34:04.667Z,24.90
2023-01-20T23:36:33.191Z,32.75
2023-01-20T23:39:02.943Z,32.33
2023-01-20T23:41:31.383Z,33.10
2023-01-20T23:43:59.754Z,28.27
2023-01-20T23:46:28.190Z,32.42
2023-01-20T23:48:56.501Z,34.85
2023-01-20T23:51:24.898Z,31.85
2023-01-20T23:53:53.323Z,33.83
2023-01-20T23:56:24.585Z,28.48
2023-01-20T23:58:53.092Z,27.00
